sensor_id;sensor_type;location;lat;lon;timestamp;P1;durP1;ratioP1;P2;durP2;ratioP2
75504;SDS011;64085;54.974;73.410;2023-06-14T00:01:37;9.43;;;4.15;;
75504;SDS011;64085;54.974;73.410;2023-06-14T00:04:05;14.35;;;5.65;;
75504;SDS011;64085;54.974;73.410;2023-06-14T00:09:15;11.85;;;4.30;;
75504;SDS011;64085;54.974;73.410;2023-06-14T00:11:42;12.75;;;3.63;;
75504;SDS011;64085;54.974;73.410;2023-06-14T00:14:08;10.80;;;4.43;;
75504;SDS011;64085;54.974;73.410;2023-06-14T00:16:33;8.93;;;3.40;;
75504;SDS011;64085;54.974;73.410;2023-06-14T00:19:17;7.70;;;3.83;;
75504;SDS011;64085;54.974;73.410;2023-06-14T00:21:43;6.18;;;3.08;;
75504;SDS011;64085;54.974;73.410;2023-06-14T00:24:08;8.95;;;3.55;;
75504;SDS011;64085;54.974;73.410;2023-06-14T00:26:34;7.30;;;3.90;;
75504;SDS011;64085;54.974;73.410;2023-06-14T00:28:59;5.68;;;2.92;;
75504;SDS011;64085;54.974;73.410;2023-06-14T00:31:25;5.18;;;2.72;;
75504;SDS011;64085;54.974;73.410;2023-06-14T00:33:50;7.75;;;3.05;;
75504;SDS011;64085;54.974;73.410;2023-06-14T00:36:15;5.65;;;3.15;;
75504;SDS011;64085;54.974;73.410;2023-06-14T00:38:41;6.00;;;2.80;;
75504;SDS011;64085;54.974;73.410;2023-06-14T00:41:06;9.30;;;2.85;;
75504;SDS011;64085;54.974;73.410;2023-06-14T00:43:32;6.18;;;2.95;;
75504;SDS011;64085;54.974;73.410;2023-06-14T00:46:16;6.38;;;3.40;;
75504;SDS011;64085;54.974;73.410;2023-06-14T00:48:41;6.68;;;3.40;;
75504;SDS011;64085;54.974;73.410;2023-06-14T00:51:07;10.40;;;3.35;;
75504;SDS011;64085;54.974;73.410;2023-06-14T00:53:51;6.47;;;4.32;;
75504;SDS011;64085;54.974;73.410;2023-06-14T00:56:38;5.65;;;3.85;;
75504;SDS011;64085;54.974;73.410;2023-06-14T00:59:03;9.27;;;3.60;;
75504;SDS011;64085;54.974;73.410;2023-06-14T01:01:30;9.60;;;4.40;;
75504;SDS011;64085;54.974;73.410;2023-06-14T01:03:58;9.93;;;3.90;;
75504;SDS011;64085;54.974;73.410;2023-06-14T01:09:33;5.78;;;3.55;;
75504;SDS011;64085;54.974;73.410;2023-06-14T01:12:07;8.57;;;3.90;;
75504;SDS011;64085;54.974;73.410;2023-06-14T01:14:35;8.18;;;3.90;;
75504;SDS011;64085;54.974;73.410;2023-06-14T01:17:01;5.32;;;3.70;;
75504;SDS011;64085;54.974;73.410;2023-06-14T01:19:27;7.50;;;3.85;;
75504;SDS011;64085;54.974;73.410;2023-06-14T01:21:53;4.70;;;3.58;;
75504;SDS011;64085;54.974;73.410;2023-06-14T01:24:20;9.23;;;7.72;;
75504;SDS011;64085;54.974;73.410;2023-06-14T01:26:51;12.65;;;11.10;;
75504;SDS011;64085;54.974;73.410;2023-06-14T01:29:21;17.58;;;14.60;;
75504;SDS011;64085;54.974;73.410;2023-06-14T01:31:47;16.88;;;12.05;;
75504;SDS011;64085;54.974;73.410;2023-06-14T01:34:12;11.45;;;8.10;;
75504;SDS011;64085;54.974;73.410;2023-06-14T01:36:38;10.20;;;5.30;;
75504;SDS011;64085;54.974;73.410;2023-06-14T01:39:05;6.25;;;3.92;;
75504;SDS011;64085;54.974;73.410;2023-06-14T01:41:31;10.27;;;4.90;;
75504;SDS011;64085;54.974;73.410;2023-06-14T01:43:57;7.55;;;4.65;;
75504;SDS011;64085;54.974;73.410;2023-06-14T01:46:23;9.85;;;4.90;;
75504;SDS011;64085;54.974;73.410;2023-06-14T01:48:48;6.22;;;4.15;;
75504;SDS011;64085;54.974;73.410;2023-06-14T01:51:14;12.00;;;4.20;;
75504;SDS011;64085;54.974;73.410;2023-06-14T01:53:39;9.77;;;4.47;;
75504;SDS011;64085;54.974;73.410;2023-06-14T02:01:52;5.70;;;3.53;;
75504;SDS011;64085;54.974;73.410;2023-06-14T02:04:17;9.02;;;3.75;;
75504;SDS011;64085;54.974;73.410;2023-06-14T02:09:27;6.45;;;4.15;;
75504;SDS011;64085;54.974;73.410;2023-06-14T02:11:52;5.47;;;3.50;;
75504;SDS011;64085;54.974;73.410;2023-06-14T02:14:18;7.97;;;3.28;;
75504;SDS011;64085;54.974;73.410;2023-06-14T02:16:43;4.85;;;3.30;;
75504;SDS011;64085;54.974;73.410;2023-06-14T02:19:14;9.07;;;3.97;;
75504;SDS011;64085;54.974;73.410;2023-06-14T02:21:40;3.38;;;2.95;;
75504;SDS011;64085;54.974;73.410;2023-06-14T02:24:06;6.00;;;3.00;;
75504;SDS011;64085;54.974;73.410;2023-06-14T02:26:31;7.75;;;2.60;;
75504;SDS011;64085;54.974;73.410;2023-06-14T02:28:57;4.05;;;2.90;;
75504;SDS011;64085;54.974;73.410;2023-06-14T02:31:23;3.55;;;2.40;;
75504;SDS011;64085;54.974;73.410;2023-06-14T02:33:49;3.50;;;2.72;;
75504;SDS011;64085;54.974;73.410;2023-06-14T02:36:14;4.07;;;2.42;;
75504;SDS011;64085;54.974;73.410;2023-06-14T02:38:40;3.55;;;2.30;;
75504;SDS011;64085;54.974;73.410;2023-06-14T02:41:06;4.80;;;3.40;;
75504;SDS011;64085;54.974;73.410;2023-06-14T02:43:31;4.88;;;2.70;;
75504;SDS011;64085;54.974;73.410;2023-06-14T02:46:15;3.60;;;2.30;;
75504;SDS011;64085;54.974;73.410;2023-06-14T02:48:41;4.00;;;2.22;;
75504;SDS011;64085;54.974;73.410;2023-06-14T02:51:06;3.63;;;2.65;;
75504;SDS011;64085;54.974;73.410;2023-06-14T02:53:33;6.15;;;2.72;;
75504;SDS011;64085;54.974;73.410;2023-06-14T02:55:59;6.93;;;3.88;;
75504;SDS011;64085;54.974;73.410;2023-06-14T02:58:24;3.50;;;3.20;;
75504;SDS011;64085;54.974;73.410;2023-06-14T03:00:50;7.28;;;3.00;;
75504;SDS011;64085;54.974;73.410;2023-06-14T03:03:17;6.20;;;3.22;;
75504;SDS011;64085;54.974;73.410;2023-06-14T03:05:44;3.50;;;3.03;;
75504;SDS011;64085;54.974;73.410;2023-06-14T03:08:12;5.78;;;3.38;;
75504;SDS011;64085;54.974;73.410;2023-06-14T03:10:56;5.32;;;3.38;;
75504;SDS011;64085;54.974;73.410;2023-06-14T03:13:22;6.82;;;3.35;;
75504;SDS011;64085;54.974;73.410;2023-06-14T03:15:48;4.75;;;3.20;;
75504;SDS011;64085;54.974;73.410;2023-06-14T03:18:16;5.28;;;2.58;;
75504;SDS011;64085;54.974;73.410;2023-06-14T03:20:41;3.22;;;2.92;;
75504;SDS011;64085;54.974;73.410;2023-06-14T03:23:10;4.18;;;2.33;;
75504;SDS011;64085;54.974;73.410;2023-06-14T03:25:35;4.75;;;2.22;;
75504;SDS011;64085;54.974;73.410;2023-06-14T03:28:03;7.40;;;3.00;;
75504;SDS011;64085;54.974;73.410;2023-06-14T03:30:29;4.85;;;2.80;;
75504;SDS011;64085;54.974;73.410;2023-06-14T03:35:39;5.30;;;2.88;;
75504;SDS011;64085;54.974;73.410;2023-06-14T03:38:04;4.65;;;2.92;;
75504;SDS011;64085;54.974;73.410;2023-06-14T03:40:48;4.20;;;3.28;;
75504;SDS011;64085;54.974;73.410;2023-06-14T03:43:32;5.03;;;2.95;;
75504;SDS011;64085;54.974;73.410;2023-06-14T03:48:42;3.97;;;2.95;;
75504;SDS011;64085;54.974;73.410;2023-06-14T03:51:07;4.35;;;3.22;;
75504;SDS011;64085;54.974;73.410;2023-06-14T03:53:33;3.25;;;2.90;;
75504;SDS011;64085;54.974;73.410;2023-06-14T03:56:00;5.28;;;2.97;;
75504;SDS011;64085;54.974;73.410;2023-06-14T03:58:44;3.55;;;2.67;;
75504;SDS011;64085;54.974;73.410;2023-06-14T04:01:10;3.17;;;2.53;;
75504;SDS011;64085;54.974;73.410;2023-06-14T04:03:37;5.32;;;2.90;;
75504;SDS011;64085;54.974;73.410;2023-06-14T04:06:03;4.22;;;2.72;;
75504;SDS011;64085;54.974;73.410;2023-06-14T04:08:29;3.00;;;2.75;;
75504;SDS011;64085;54.974;73.410;2023-06-14T04:10:55;3.88;;;2.78;;
75504;SDS011;64085;54.974;73.410;2023-06-14T04:13:20;3.80;;;2.53;;
75504;SDS011;64085;54.974;73.410;2023-06-14T04:15:46;5.78;;;2.60;;
75504;SDS011;64085;54.974;73.410;2023-06-14T04:18:11;2.80;;;2.47;;
75504;SDS011;64085;54.974;73.410;2023-06-14T04:20:55;2.55;;;2.35;;
75504;SDS011;64085;54.974;73.410;2023-06-14T04:23:21;2.72;;;2.53;;
75504;SDS011;64085;54.974;73.410;2023-06-14T04:28:31;5.03;;;2.83;;
75504;SDS011;64085;54.974;73.410;2023-06-14T04:33:41;4.75;;;2.85;;
75504;SDS011;64085;54.974;73.410;2023-06-14T04:36:11;3.80;;;2.70;;
75504;SDS011;64085;54.974;73.410;2023-06-14T04:38:38;3.17;;;2.90;;
75504;SDS011;64085;54.974;73.410;2023-06-14T04:41:03;2.50;;;2.30;;
75504;SDS011;64085;54.974;73.410;2023-06-14T04:43:28;2.70;;;2.33;;
75504;SDS011;64085;54.974;73.410;2023-06-14T04:45:54;2.80;;;2.60;;
75504;SDS011;64085;54.974;73.410;2023-06-14T04:48:21;2.75;;;2.55;;
75504;SDS011;64085;54.974;73.410;2023-06-14T04:50:47;4.82;;;2.45;;
75504;SDS011;64085;54.974;73.410;2023-06-14T04:53:13;3.42;;;2.63;;
75504;SDS011;64085;54.974;73.410;2023-06-14T04:55:38;2.78;;;2.30;;
75504;SDS011;64085;54.974;73.410;2023-06-14T04:58:04;4.53;;;2.40;;
75504;SDS011;64085;54.974;73.410;2023-06-14T05:00:30;2.75;;;2.53;;
75504;SDS011;64085;54.974;73.410;2023-06-14T05:08:43;4.13;;;2.95;;
75504;SDS011;64085;54.974;73.410;2023-06-14T05:11:09;5.00;;;2.90;;
75504;SDS011;64085;54.974;73.410;2023-06-14T05:13:53;2.45;;;2.33;;
75504;SDS011;64085;54.974;73.410;2023-06-14T05:16:19;4.93;;;2.53;;
75504;SDS011;64085;54.974;73.410;2023-06-14T05:18:48;2.63;;;2.42;;
75504;SDS011;64085;54.974;73.410;2023-06-14T05:21:13;5.50;;;3.47;;
75504;SDS011;64085;54.974;73.410;2023-06-14T05:23:42;2.92;;;2.53;;
75504;SDS011;64085;54.974;73.410;2023-06-14T05:26:26;2.72;;;2.53;;
75504;SDS011;64085;54.974;73.410;2023-06-14T05:28:58;2.80;;;2.25;;
75504;SDS011;64085;54.974;73.410;2023-06-14T05:31:25;3.53;;;2.20;;
75504;SDS011;64085;54.974;73.410;2023-06-14T05:33:51;2.83;;;2.38;;
75504;SDS011;64085;54.974;73.410;2023-06-14T05:36:16;3.00;;;2.30;;
75504;SDS011;64085;54.974;73.410;2023-06-14T05:38:42;3.60;;;2.58;;
75504;SDS011;64085;54.974;73.410;2023-06-14T05:41:07;2.50;;;2.30;;
75504;SDS011;64085;54.974;73.410;2023-06-14T05:43:33;3.10;;;2.20;;
75504;SDS011;64085;54.974;73.410;2023-06-14T05:45:58;2.63;;;2.42;;
75504;SDS011;64085;54.974;73.410;2023-06-14T05:51:08;3.47;;;2.03;;
75504;SDS011;64085;54.974;73.410;2023-06-14T05:53:34;3.30;;;2.30;;
75504;SDS011;64085;54.974;73.410;2023-06-14T05:55:59;3.75;;;2.70;;
75504;SDS011;64085;54.974;73.410;2023-06-14T05:58:25;4.07;;;2.42;;
75504;SDS011;64085;54.974;73.410;2023-06-14T06:00:50;5.90;;;2.30;;
75504;SDS011;64085;54.974;73.410;2023-06-14T06:03:18;4.10;;;2.83;;
75504;SDS011;64085;54.974;73.410;2023-06-14T06:05:44;5.00;;;2.67;;
75504;SDS011;64085;54.974;73.410;2023-06-14T06:11:11;2.65;;;2.22;;
75504;SDS011;64085;54.974;73.410;2023-06-14T06:13:55;4.75;;;2.15;;
75504;SDS011;64085;54.974;73.410;2023-06-14T06:19:05;2.53;;;2.03;;
75504;SDS011;64085;54.974;73.410;2023-06-14T06:24:14;3.35;;;2.00;;
75504;SDS011;64085;54.974;73.410;2023-06-14T06:29:24;3.40;;;2.20;;
75504;SDS011;64085;54.974;73.410;2023-06-14T06:31:49;2.22;;;1.98;;
75504;SDS011;64085;54.974;73.410;2023-06-14T06:34:15;6.32;;;2.97;;
75504;SDS011;64085;54.974;73.410;2023-06-14T06:36:40;3.72;;;3.33;;
75504;SDS011;64085;54.974;73.410;2023-06-14T06:39:07;2.75;;;2.33;;
75504;SDS011;64085;54.974;73.410;2023-06-14T06:41:35;3.33;;;2.42;;
75504;SDS011;64085;54.974;73.410;2023-06-14T06:44:02;3.60;;;2.10;;
75504;SDS011;64085;54.974;73.410;2023-06-14T06:49:12;5.15;;;1.95;;
75504;SDS011;64085;54.974;73.410;2023-06-14T06:51:40;5.97;;;3.10;;
75504;SDS011;64085;54.974;73.410;2023-06-14T06:56:51;2.97;;;2.08;;
75504;SDS011;64085;54.974;73.410;2023-06-14T06:59:16;4.95;;;2.17;;
75504;SDS011;64085;54.974;73.410;2023-06-14T07:01:42;3.97;;;2.72;;
75504;SDS011;64085;54.974;73.410;2023-06-14T07:04:07;2.75;;;2.15;;
75504;SDS011;64085;54.974;73.410;2023-06-14T07:06:33;4.22;;;1.70;;
75504;SDS011;64085;54.974;73.410;2023-06-14T07:08:58;2.47;;;1.90;;
75504;SDS011;64085;54.974;73.410;2023-06-14T07:11:26;3.03;;;1.77;;
75504;SDS011;64085;54.974;73.410;2023-06-14T07:13:52;3.38;;;2.08;;
75504;SDS011;64085;54.974;73.410;2023-06-14T07:16:17;2.33;;;1.73;;
75504;SDS011;64085;54.974;73.410;2023-06-14T07:18:42;3.42;;;2.17;;
75504;SDS011;64085;54.974;73.410;2023-06-14T07:21:09;2.90;;;1.80;;
75504;SDS011;64085;54.974;73.410;2023-06-14T07:23:34;4.15;;;1.90;;
75504;SDS011;64085;54.974;73.410;2023-06-14T07:26:00;4.38;;;1.85;;
75504;SDS011;64085;54.974;73.410;2023-06-14T07:28:26;2.22;;;1.80;;
75504;SDS011;64085;54.974;73.410;2023-06-14T07:30:51;2.10;;;1.88;;
75504;SDS011;64085;54.974;73.410;2023-06-14T07:33:19;2.33;;;1.80;;
75504;SDS011;64085;54.974;73.410;2023-06-14T07:38:29;2.13;;;1.60;;
75504;SDS011;64085;54.974;73.410;2023-06-14T07:40:54;2.42;;;1.58;;
75504;SDS011;64085;54.974;73.410;2023-06-14T07:43:23;3.33;;;1.92;;
75504;SDS011;64085;54.974;73.410;2023-06-14T07:48:13;2.87;;;2.00;;
75504;SDS011;64085;54.974;73.410;2023-06-14T07:50:39;2.28;;;1.70;;
75504;SDS011;64085;54.974;73.410;2023-06-14T07:53:04;3.10;;;1.58;;
75504;SDS011;64085;54.974;73.410;2023-06-14T07:55:30;2.83;;;2.58;;
75504;SDS011;64085;54.974;73.410;2023-06-14T07:57:57;3.42;;;1.95;;
75504;SDS011;64085;54.974;73.410;2023-06-14T08:00:23;5.00;;;1.80;;
75504;SDS011;64085;54.974;73.410;2023-06-14T08:02:48;3.72;;;1.90;;
75504;SDS011;64085;54.974;73.410;2023-06-14T08:05:15;3.33;;;1.48;;
75504;SDS011;64085;54.974;73.410;2023-06-14T08:07:40;2.75;;;1.70;;
75504;SDS011;64085;54.974;73.410;2023-06-14T08:10:06;2.67;;;1.80;;
75504;SDS011;64085;54.974;73.410;2023-06-14T08:12:32;2.50;;;1.77;;
75504;SDS011;64085;54.974;73.410;2023-06-14T08:14:57;2.00;;;1.77;;
75504;SDS011;64085;54.974;73.410;2023-06-14T08:17:23;4.70;;;1.98;;
75504;SDS011;64085;54.974;73.410;2023-06-14T08:19:48;5.22;;;2.47;;
75504;SDS011;64085;54.974;73.410;2023-06-14T08:24:59;6.80;;;2.55;;
75504;SDS011;64085;54.974;73.410;2023-06-14T08:30:09;5.60;;;1.98;;
75504;SDS011;64085;54.974;73.410;2023-06-14T08:32:35;4.10;;;1.65;;
75504;SDS011;64085;54.974;73.410;2023-06-14T08:35:00;2.63;;;2.08;;
75504;SDS011;64085;54.974;73.410;2023-06-14T08:37:26;2.40;;;1.98;;
75504;SDS011;64085;54.974;73.410;2023-06-14T08:39:52;3.47;;;1.70;;
75504;SDS011;64085;54.974;73.410;2023-06-14T08:42:17;2.75;;;2.17;;
75504;SDS011;64085;54.974;73.410;2023-06-14T08:44:44;9.15;;;2.95;;
75504;SDS011;64085;54.974;73.410;2023-06-14T08:47:09;2.95;;;2.05;;
75504;SDS011;64085;54.974;73.410;2023-06-14T08:49:36;2.92;;;2.22;;
75504;SDS011;64085;54.974;73.410;2023-06-14T08:52:03;2.38;;;1.85;;
75504;SDS011;64085;54.974;73.410;2023-06-14T08:54:30;3.20;;;1.80;;
75504;SDS011;64085;54.974;73.410;2023-06-14T08:56:57;3.33;;;2.08;;
75504;SDS011;64085;54.974;73.410;2023-06-14T08:59:26;3.78;;;2.08;;
75504;SDS011;64085;54.974;73.410;2023-06-14T09:01:52;4.78;;;2.22;;
75504;SDS011;64085;54.974;73.410;2023-06-14T09:04:18;5.25;;;2.00;;
75504;SDS011;64085;54.974;73.410;2023-06-14T09:06:44;3.15;;;1.95;;
75504;SDS011;64085;54.974;73.410;2023-06-14T09:09:10;3.75;;;2.28;;
75504;SDS011;64085;54.974;73.410;2023-06-14T09:11:36;5.00;;;2.08;;
75504;SDS011;64085;54.974;73.410;2023-06-14T09:14:01;2.85;;;1.80;;
75504;SDS011;64085;54.974;73.410;2023-06-14T09:16:27;3.53;;;1.73;;
75504;SDS011;64085;54.974;73.410;2023-06-14T09:18:53;3.05;;;1.95;;
75504;SDS011;64085;54.974;73.410;2023-06-14T09:21:19;2.20;;;1.98;;
75504;SDS011;64085;54.974;73.410;2023-06-14T09:23:46;3.45;;;1.80;;
75504;SDS011;64085;54.974;73.410;2023-06-14T09:26:15;4.32;;;2.20;;
75504;SDS011;64085;54.974;73.410;2023-06-14T09:28:59;3.17;;;2.28;;
75504;SDS011;64085;54.974;73.410;2023-06-14T09:31:25;4.88;;;2.00;;
75504;SDS011;64085;54.974;73.410;2023-06-14T09:33:54;2.83;;;2.05;;
75504;SDS011;64085;54.974;73.410;2023-06-14T09:36:22;4.78;;;1.85;;
75504;SDS011;64085;54.974;73.410;2023-06-14T09:38:51;2.40;;;1.52;;
75504;SDS011;64085;54.974;73.410;2023-06-14T09:41:17;4.70;;;2.00;;
75504;SDS011;64085;54.974;73.410;2023-06-14T09:43:43;2.72;;;1.50;;
75504;SDS011;64085;54.974;73.410;2023-06-14T09:46:10;3.83;;;1.95;;
75504;SDS011;64085;54.974;73.410;2023-06-14T09:48:36;2.83;;;1.80;;
75504;SDS011;64085;54.974;73.410;2023-06-14T09:51:01;3.15;;;2.00;;
75504;SDS011;64085;54.974;73.410;2023-06-14T09:53:29;3.00;;;2.00;;
75504;SDS011;64085;54.974;73.410;2023-06-14T09:55:54;7.13;;;2.28;;
75504;SDS011;64085;54.974;73.410;2023-06-14T09:58:21;2.92;;;1.85;;
75504;SDS011;64085;54.974;73.410;2023-06-14T10:00:48;3.00;;;1.75;;
75504;SDS011;64085;54.974;73.410;2023-06-14T10:05:59;4.63;;;1.50;;
75504;SDS011;64085;54.974;73.410;2023-06-14T10:08:27;2.15;;;1.67;;
75504;SDS011;64085;54.974;73.410;2023-06-14T10:10:55;3.80;;;1.77;;
75504;SDS011;64085;54.974;73.410;2023-06-14T10:13:21;3.42;;;1.67;;
75504;SDS011;64085;54.974;73.410;2023-06-14T10:23:29;3.35;;;1.98;;
75504;SDS011;64085;54.974;73.410;2023-06-14T10:25:57;3.58;;;1.67;;
75504;SDS011;64085;54.974;73.410;2023-06-14T10:28:22;3.83;;;1.55;;
75504;SDS011;64085;54.974;73.410;2023-06-14T10:33:24;4.38;;;1.70;;
75504;SDS011;64085;54.974;73.410;2023-06-14T10:35:49;2.28;;;1.80;;
75504;SDS011;64085;54.974;73.410;2023-06-14T10:38:14;3.30;;;1.90;;
75504;SDS011;64085;54.974;73.410;2023-06-14T10:40:40;2.58;;;2.15;;
75504;SDS011;64085;54.974;73.410;2023-06-14T10:43:24;3.92;;;1.80;;
75504;SDS011;64085;54.974;73.410;2023-06-14T10:48:33;5.00;;;2.05;;
75504;SDS011;64085;54.974;73.410;2023-06-14T10:51:18;3.40;;;2.10;;
75504;SDS011;64085;54.974;73.410;2023-06-14T10:54:02;8.57;;;2.28;;
75504;SDS011;64085;54.974;73.410;2023-06-14T10:56:28;6.43;;;2.33;;
75504;SDS011;64085;54.974;73.410;2023-06-14T10:58:55;2.50;;;1.70;;
75504;SDS011;64085;54.974;73.410;2023-06-14T11:01:29;3.90;;;2.10;;
75504;SDS011;64085;54.974;73.410;2023-06-14T11:06:45;3.50;;;1.90;;
75504;SDS011;64085;54.974;73.410;2023-06-14T11:09:41;3.53;;;1.70;;
75504;SDS011;64085;54.974;73.410;2023-06-14T11:12:10;4.22;;;2.35;;
75504;SDS011;64085;54.974;73.410;2023-06-14T11:14:41;3.33;;;2.13;;
75504;SDS011;64085;54.974;73.410;2023-06-14T11:17:07;3.60;;;2.20;;
75504;SDS011;64085;54.974;73.410;2023-06-14T11:19:32;3.13;;;2.22;;
75504;SDS011;64085;54.974;73.410;2023-06-14T11:21:58;3.67;;;2.10;;
75504;SDS011;64085;54.974;73.410;2023-06-14T11:24:24;3.80;;;1.90;;
75504;SDS011;64085;54.974;73.410;2023-06-14T11:26:49;7.05;;;2.42;;
75504;SDS011;64085;54.974;73.410;2023-06-14T11:29:15;2.53;;;2.33;;
75504;SDS011;64085;54.974;73.410;2023-06-14T11:31:44;5.25;;;2.60;;
75504;SDS011;64085;54.974;73.410;2023-06-14T11:34:11;3.55;;;2.53;;
75504;SDS011;64085;54.974;73.410;2023-06-14T11:36:38;3.88;;;2.50;;
75504;SDS011;64085;54.974;73.410;2023-06-14T11:39:04;4.00;;;2.30;;
75504;SDS011;64085;54.974;73.410;2023-06-14T11:41:36;2.97;;;2.38;;
75504;SDS011;64085;54.974;73.410;2023-06-14T11:44:01;5.78;;;2.63;;
75504;SDS011;64085;54.974;73.410;2023-06-14T11:46:28;5.00;;;2.55;;
75504;SDS011;64085;54.974;73.410;2023-06-14T11:48:53;10.38;;;2.95;;
75504;SDS011;64085;54.974;73.410;2023-06-14T11:51:18;6.78;;;2.88;;
75504;SDS011;64085;54.974;73.410;2023-06-14T11:53:44;2.45;;;2.10;;
75504;SDS011;64085;54.974;73.410;2023-06-14T11:56:09;5.43;;;2.42;;
75504;SDS011;64085;54.974;73.410;2023-06-14T11:58:35;2.78;;;2.13;;
75504;SDS011;64085;54.974;73.410;2023-06-14T12:01:02;5.68;;;3.63;;
75504;SDS011;64085;54.974;73.410;2023-06-14T12:03:28;4.72;;;3.13;;
75504;SDS011;64085;54.974;73.410;2023-06-14T12:06:06;4.65;;;2.55;;
75504;SDS011;64085;54.974;73.410;2023-06-14T12:08:35;3.60;;;2.80;;
75504;SDS011;64085;54.974;73.410;2023-06-14T12:11:19;4.97;;;2.40;;
75504;SDS011;64085;54.974;73.410;2023-06-14T12:13:47;5.45;;;2.90;;
75504;SDS011;64085;54.974;73.410;2023-06-14T12:16:13;7.63;;;2.80;;
75504;SDS011;64085;54.974;73.410;2023-06-14T12:18:40;2.97;;;2.15;;
75504;SDS011;64085;54.974;73.410;2023-06-14T12:23:53;3.17;;;1.98;;
75504;SDS011;64085;54.974;73.410;2023-06-14T12:26:40;2.65;;;2.00;;
75504;SDS011;64085;54.974;73.410;2023-06-14T12:29:06;3.25;;;2.15;;
75504;SDS011;64085;54.974;73.410;2023-06-14T12:31:32;2.97;;;2.33;;
75504;SDS011;64085;54.974;73.410;2023-06-14T12:33:57;5.60;;;2.70;;
75504;SDS011;64085;54.974;73.410;2023-06-14T12:36:24;4.18;;;3.10;;
75504;SDS011;64085;54.974;73.410;2023-06-14T12:38:52;4.43;;;2.35;;
75504;SDS011;64085;54.974;73.410;2023-06-14T12:41:36;5.18;;;2.28;;
75504;SDS011;64085;54.974;73.410;2023-06-14T12:44:02;5.00;;;2.90;;
75504;SDS011;64085;54.974;73.410;2023-06-14T12:46:30;5.25;;;3.25;;
75504;SDS011;64085;54.974;73.410;2023-06-14T12:48:56;5.40;;;3.00;;
75504;SDS011;64085;54.974;73.410;2023-06-14T12:51:21;4.68;;;2.45;;
75504;SDS011;64085;54.974;73.410;2023-06-14T12:53:47;4.35;;;2.85;;
75504;SDS011;64085;54.974;73.410;2023-06-14T12:58:58;4.63;;;3.10;;
75504;SDS011;64085;54.974;73.410;2023-06-14T13:01:23;4.90;;;3.17;;
75504;SDS011;64085;54.974;73.410;2023-06-14T13:06:33;7.28;;;3.90;;
75504;SDS011;64085;54.974;73.410;2023-06-14T13:09:01;4.53;;;3.33;;
75504;SDS011;64085;54.974;73.410;2023-06-14T13:11:26;7.18;;;3.83;;
75504;SDS011;64085;54.974;73.410;2023-06-14T13:14:10;7.72;;;2.95;;
75504;SDS011;64085;54.974;73.410;2023-06-14T13:16:36;4.90;;;3.08;;
75504;SDS011;64085;54.974;73.410;2023-06-14T13:19:01;4.53;;;3.03;;
75504;SDS011;64085;54.974;73.410;2023-06-14T13:21:27;6.65;;;3.85;;
75504;SDS011;64085;54.974;73.410;2023-06-14T13:23:52;6.78;;;3.20;;
75504;SDS011;64085;54.974;73.410;2023-06-14T13:26:18;7.93;;;3.40;;
75504;SDS011;64085;54.974;73.410;2023-06-14T13:28:44;7.18;;;2.88;;
75504;SDS011;64085;54.974;73.410;2023-06-14T13:31:09;4.30;;;3.13;;
75504;SDS011;64085;54.974;73.410;2023-06-14T13:33:35;6.50;;;3.30;;
75504;SDS011;64085;54.974;73.410;2023-06-14T13:36:19;5.25;;;3.10;;
75504;SDS011;64085;54.974;73.410;2023-06-14T13:41:29;8.65;;;3.40;;
75504;SDS011;64085;54.974;73.410;2023-06-14T13:43:59;7.07;;;3.60;;
75504;SDS011;64085;54.974;73.410;2023-06-14T13:46:25;4.38;;;3.22;;
75504;SDS011;64085;54.974;73.410;2023-06-14T13:48:50;7.75;;;3.53;;
75504;SDS011;64085;54.974;73.410;2023-06-14T13:51:16;6.05;;;3.25;;
75504;SDS011;64085;54.974;73.410;2023-06-14T13:53:45;7.38;;;2.90;;
75504;SDS011;64085;54.974;73.410;2023-06-14T13:56:10;5.90;;;3.58;;
75504;SDS011;64085;54.974;73.410;2023-06-14T13:58:37;5.95;;;3.53;;
75504;SDS011;64085;54.974;73.410;2023-06-14T14:01:21;4.43;;;3.40;;
75504;SDS011;64085;54.974;73.410;2023-06-14T14:03:48;5.43;;;3.40;;
75504;SDS011;64085;54.974;73.410;2023-06-14T14:06:14;4.35;;;3.58;;
75504;SDS011;64085;54.974;73.410;2023-06-14T14:08:40;7.90;;;3.67;;
75504;SDS011;64085;54.974;73.410;2023-06-14T14:11:24;5.68;;;2.90;;
75504;SDS011;64085;54.974;73.410;2023-06-14T14:13:50;6.88;;;3.33;;
75504;SDS011;64085;54.974;73.410;2023-06-14T14:16:15;5.45;;;3.05;;
75504;SDS011;64085;54.974;73.410;2023-06-14T14:18:41;7.85;;;3.92;;
75504;SDS011;64085;54.974;73.410;2023-06-14T14:21:06;10.38;;;5.20;;
75504;SDS011;64085;54.974;73.410;2023-06-14T14:23:33;10.45;;;7.32;;
75504;SDS011;64085;54.974;73.410;2023-06-14T14:25:59;18.15;;;11.57;;
75504;SDS011;64085;54.974;73.410;2023-06-14T14:28:42;14.27;;;7.60;;
75504;SDS011;64085;54.974;73.410;2023-06-14T14:31:08;12.88;;;8.20;;
75504;SDS011;64085;54.974;73.410;2023-06-14T14:33:33;10.20;;;6.90;;
75504;SDS011;64085;54.974;73.410;2023-06-14T14:36:00;7.63;;;4.63;;
75504;SDS011;64085;54.974;73.410;2023-06-14T14:38:28;8.85;;;4.95;;
75504;SDS011;64085;54.974;73.410;2023-06-14T14:40:54;5.55;;;3.53;;
75504;SDS011;64085;54.974;73.410;2023-06-14T14:43:19;3.63;;;2.50;;
75504;SDS011;64085;54.974;73.410;2023-06-14T14:48:29;6.68;;;3.00;;
75504;SDS011;64085;54.974;73.410;2023-06-14T14:50:54;4.30;;;2.60;;
75504;SDS011;64085;54.974;73.410;2023-06-14T14:53:20;9.05;;;3.20;;
75504;SDS011;64085;54.974;73.410;2023-06-14T14:55:45;6.30;;;3.13;;
75504;SDS011;64085;54.974;73.410;2023-06-14T14:58:12;4.00;;;2.97;;
75504;SDS011;64085;54.974;73.410;2023-06-14T15:03:21;7.63;;;3.38;;
75504;SDS011;64085;54.974;73.410;2023-06-14T15:05:46;9.27;;;3.60;;
75504;SDS011;64085;54.974;73.410;2023-06-14T15:08:12;11.55;;;3.80;;
75504;SDS011;64085;54.974;73.410;2023-06-14T15:10:38;8.73;;;3.50;;
75504;SDS011;64085;54.974;73.410;2023-06-14T15:13:05;8.43;;;3.65;;
75504;SDS011;64085;54.974;73.410;2023-06-14T15:15:31;8.15;;;3.85;;
75504;SDS011;64085;54.974;73.410;2023-06-14T15:17:56;7.25;;;4.32;;
75504;SDS011;64085;54.974;73.410;2023-06-14T15:20:21;6.43;;;3.70;;
75504;SDS011;64085;54.974;73.410;2023-06-14T15:22:47;7.35;;;4.05;;
75504;SDS011;64085;54.974;73.410;2023-06-14T15:25:13;6.75;;;4.20;;
75504;SDS011;64085;54.974;73.410;2023-06-14T15:27:38;7.57;;;4.22;;
75504;SDS011;64085;54.974;73.410;2023-06-14T15:30:04;10.82;;;4.93;;
75504;SDS011;64085;54.974;73.410;2023-06-14T15:32:29;10.45;;;4.88;;
75504;SDS011;64085;54.974;73.410;2023-06-14T15:34:55;7.35;;;5.05;;
75504;SDS011;64085;54.974;73.410;2023-06-14T15:37:20;10.82;;;4.43;;
75504;SDS011;64085;54.974;73.410;2023-06-14T15:39:46;10.90;;;4.80;;
75504;SDS011;64085;54.974;73.410;2023-06-14T15:42:18;9.85;;;4.35;;
75504;SDS011;64085;54.974;73.410;2023-06-14T15:44:44;11.80;;;4.32;;
75504;SDS011;64085;54.974;73.410;2023-06-14T15:47:11;9.73;;;4.15;;
75504;SDS011;64085;54.974;73.410;2023-06-14T15:49:55;7.38;;;3.70;;
75504;SDS011;64085;54.974;73.410;2023-06-14T15:52:20;7.63;;;3.30;;
75504;SDS011;64085;54.974;73.410;2023-06-14T15:55:04;6.05;;;2.90;;
75504;SDS011;64085;54.974;73.410;2023-06-14T15:57:30;5.03;;;2.92;;
75504;SDS011;64085;54.974;73.410;2023-06-14T16:00:19;6.13;;;3.53;;
75504;SDS011;64085;54.974;73.410;2023-06-14T16:02:45;7.75;;;3.67;;
75504;SDS011;64085;54.974;73.410;2023-06-14T16:05:11;7.13;;;3.47;;
75504;SDS011;64085;54.974;73.410;2023-06-14T16:07:37;6.65;;;3.50;;
75504;SDS011;64085;54.974;73.410;2023-06-14T16:10:02;4.80;;;2.80;;
75504;SDS011;64085;54.974;73.410;2023-06-14T16:12:27;7.05;;;3.63;;